CDT,Max TemperatureF,Mean TemperatureF,Min TemperatureF,Max Dew PointF,MeanDew PointF,Min DewpointF,Max Humidity, Mean Humidity, Min Humidity, Max Sea Level PressureIn, Mean Sea Level PressureIn, Min Sea Level PressureIn, Max VisibilityMiles, Mean VisibilityMiles, Min VisibilityMiles, Max Wind SpeedMPH, Mean Wind SpeedMPH, Max Gust SpeedMPH,PrecipitationIn, CloudCover, Events, WindDirDegrees
2012-9-1,95,76,57,63,59,55,100,64,28,30.06,29.99,29.91,10,8,0,16,6,22,0.00,0,Fog,153
2012-9-2,98,81,64,65,59,52,93,58,23,29.96,29.88,29.82,10,10,10,17,6,22,0.00,0,,185
2012-9-3,89,76,62,67,62,55,87,65,43,29.92,29.87,29.83,10,10,10,16,6,23,0.00,1,,140
2012-9-4,100,78,55,64,57,45,100,59,17,29.92,29.84,29.68,10,4,0,20,5,25,0.00,1,Fog-Thunderstorm,223
2012-9-5,83,66,49,55,45,35,77,48,18,30.00,29.93,29.76,10,10,10,24,9,30,0.00,0,,330
2012-9-6,95,71,47,55,45,38,86,51,16,30.00,29.88,29.73,10,10,9,23,9,30,0.00,0,,238
2012-9-7,76,62,48,54,46,40,80,56,31,30.22,30.07,29.86,10,10,8,21,10,28,0.04,3,Rain,343
2012-9-8,86,61,36,45,38,32,92,54,15,30.25,30.15,30.04,10,10,10,24,8,31,0.00,0,,324
2012-9-9,79,58,36,40,36,30,85,51,17,30.28,30.18,30.07,10,10,10,14,5,17,0.00,0,,225
2012-9-10,92,70,47,45,41,37,77,46,15,30.05,29.90,29.77,10,10,10,32,14,40,0.00,0,,179
2012-9-11,96,78,60,52,45,39,53,37,20,29.85,29.78,29.71,10,10,10,23,10,29,0.00,0,,197
2012-9-12,70,59,47,52,46,33,93,62,30,30.34,30.18,29.88,10,10,5,28,12,35,0.09,5,Rain,21
2012-9-13,74,57,40,49,40,33,100,62,23,30.45,30.39,30.34,10,8,4,14,5,17,0.00,0,,220
2012-9-14,84,61,38,45,38,30,92,54,15,30.37,30.30,30.22,10,10,10,13,4,17,0.00,0,,210
2012-9-15,83,64,45,43,39,36,76,47,18,30.24,30.13,30.04,10,10,10,18,8,25,0.00,0,,181
2012-9-16,83,67,50,55,51,41,100,63,26,30.04,29.96,29.85,10,8,2,18,8,23,0.00,2,,175
2012-9-17,71,57,43,51,40,30,89,56,23,30.14,30.05,29.86,10,10,10,25,11,35,T,0,,355
2012-9-18,78,61,44,42,36,31,83,52,21,30.13,30.02,29.87,10,10,6,15,4,22,0.00,3,,157
2012-9-19,83,62,40,44,35,26,86,51,16,30.05,29.92,29.85,10,10,10,26,9,36,0.00,0,,327
2012-9-20,77,56,35,38,33,29,82,50,18,30.11,30.02,29.92,10,10,9,12,3,15,0.00,0,,220
2012-9-21,78,61,44,39,35,32,76,48,20,30.04,29.96,29.90,10,10,9,25,12,33,0.00,0,,316
2012-9-22,68,52,35,36,29,25,76,49,22,30.34,30.25,30.07,10,10,10,12,5,16,0.00,0,,360
2012-9-23,73,52,30,34,29,22,85,52,19,30.33,30.25,30.16,10,10,10,18,6,28,0.00,0,,175
2012-9-24,71,54,37,49,41,33,86,63,39,30.14,29.99,29.87,10,10,10,9,2,13,T,0,,179
2012-9-25,84,63,42,49,41,35,96,58,20,29.93,29.89,29.85,10,10,10,9,3,14,0.00,0,,348
2012-9-26,81,61,40,37,36,34,76,48,19,30.18,30.07,29.93,10,10,8,13,3,17,0.00,0,,43
2012-9-27,78,57,35,45,37,32,82,54,25,30.23,30.18,30.12,10,10,7,8,2,12,0.00,0,,150
2012-9-28,80,60,39,41,36,32,79,49,19,30.21,30.15,30.08,10,10,4,8,1,13,0.00,0,,139
2012-9-29,79,57,35,45,36,32,89,54,19,30.20,30.11,30.03,10,10,9,14,3,17,0.00,0,,172
2012-9-30,81,59,37,52,41,33,85,58,30,30.06,29.98,29.91,10,10,10,15,3,20,0.00,0,,170